createdAt,value
2018-11-23T00:00:35.801Z,25.07
2018-11-23T00:03:05.809Z,24.23
2018-11-23T00:05:35.885Z,24.17
2018-11-23T00:08:05.685Z,22.83
2018-11-23T00:10:35.405Z,22.67
2018-11-23T00:13:05.234Z,23.90
2018-11-23T00:15:34.965Z,26.03
2018-11-23T00:18:04.969Z,23.90
2018-11-23T00:20:34.729Z,25.03
2018-11-23T00:23:09.998Z,22.43
2018-11-23T00:25:39.705Z,24.70
2018-11-23T00:28:09.441Z,24.93
2018-11-23T00:30:39.153Z,24.10
2018-11-23T00:33:08.856Z,23.83
2018-11-23T00:35:38.565Z,24.80
2018-11-23T00:38:08.283Z,25.13
2018-11-23T00:40:38.098Z,24.77
2018-11-23T00:43:07.871Z,24.20
2018-11-23T00:45:42.760Z,23.67
2018-11-23T00:48:07.301Z,24.20
2018-11-23T00:50:37.046Z,21.93
2018-11-23T00:53:06.752Z,22.40
2018-11-23T00:55:36.567Z,21.70
2018-11-23T00:58:06.245Z,23.33
2018-11-23T01:00:35.982Z,23.20
2018-11-23T01:03:06.326Z,26.87
2018-11-23T01:05:36.053Z,24.07
2018-11-23T01:08:05.761Z,23.70
2018-11-23T01:10:35.516Z,21.90
2018-11-23T01:13:05.692Z,22.33
2018-11-23T01:15:35.360Z,22.80
2018-11-23T01:18:05.212Z,23.33
2018-11-23T01:20:34.888Z,22.97
2018-11-23T01:23:04.556Z,22.83
2018-11-23T01:25:34.237Z,22.83
2018-11-23T01:28:03.930Z,21.77
2018-11-23T01:30:33.702Z,22.97
2018-11-23T01:33:03.388Z,23.23
2018-11-23T01:35:33.060Z,23.47
2018-11-23T01:38:02.740Z,23.60
2018-11-23T01:40:32.420Z,23.27
2018-11-23T01:43:02.108Z,22.27
2018-11-23T01:45:31.794Z,21.97
2018-11-23T01:48:01.452Z,22.23
2018-11-23T01:50:31.232Z,23.40
2018-11-23T01:53:01.067Z,23.57
2018-11-23T01:55:30.736Z,22.87
2018-11-23T01:58:00.416Z,23.60
2018-11-23T02:00:30.099Z,24.17
2018-11-23T02:02:59.772Z,23.73
2018-11-23T02:05:29.440Z,24.93
2018-11-23T02:07:59.108Z,24.07
2018-11-23T02:10:28.801Z,23.70
2018-11-23T02:12:58.559Z,23.47
2018-11-23T02:15:28.236Z,23.10
2018-11-23T02:17:57.904Z,23.53
2018-11-23T02:20:27.600Z,23.63
2018-11-23T02:22:57.272Z,23.53
2018-11-23T02:25:26.950Z,23.13
2018-11-23T02:27:56.727Z,23.33
2018-11-23T02:30:26.916Z,21.93
2018-11-23T02:32:56.589Z,24.27
2018-11-23T02:35:26.284Z,22.63
2018-11-23T02:37:55.940Z,24.50
2018-11-23T02:40:25.635Z,23.40
2018-11-23T02:42:55.296Z,24.23
2018-11-23T02:45:24.971Z,23.87
2018-11-23T02:47:54.626Z,23.93
2018-11-23T02:50:24.307Z,23.33
2018-11-23T02:52:53.960Z,23.17
2018-11-23T02:55:23.626Z,25.07
2018-11-23T02:57:53.303Z,23.90
2018-11-23T03:00:23.340Z,23.77
2018-11-23T03:02:53.008Z,23.80
2018-11-23T03:05:23.788Z,23.17
2018-11-23T03:07:53.461Z,24.27
2018-11-23T03:10:23.131Z,23.40
2018-11-23T03:12:52.808Z,22.70
2018-11-23T03:15:22.572Z,23.00
2018-11-23T03:17:52.245Z,24.50
2018-11-23T03:20:22.609Z,23.87
2018-11-23T03:22:52.288Z,22.17
2018-11-23T03:25:21.961Z,23.23
2018-11-23T03:27:51.647Z,23.50
2018-11-23T03:30:22.518Z,22.80
2018-11-23T03:32:52.983Z,22.93
2018-11-23T03:35:23.205Z,22.93
2018-11-23T03:37:52.888Z,24.43
2018-11-23T03:40:22.550Z,24.93
2018-11-23T03:42:52.351Z,23.70
2018-11-23T03:45:22.018Z,22.77
2018-11-23T03:47:51.706Z,23.80
2018-11-23T03:50:21.368Z,24.03
2018-11-23T03:52:51.100Z,22.13
2018-11-23T03:55:20.763Z,23.77
2018-11-23T03:57:50.444Z,22.97
2018-11-23T04:00:21.252Z,23.97
2018-11-23T04:02:51.320Z,23.97
2018-11-23T04:05:21.096Z,22.10
2018-11-23T04:07:50.773Z,23.40
2018-11-23T04:10:20.431Z,24.07
2018-11-23T04:12:50.092Z,23.63
2018-11-23T04:15:19.764Z,22.07
2018-11-23T04:17:49.432Z,23.03
2018-11-23T04:20:19.162Z,23.27
2018-11-23T04:22:48.812Z,23.80
2018-11-23T04:25:18.474Z,22.90
2018-11-23T04:27:48.165Z,23.90
2018-11-23T04:30:18.228Z,24.27
2018-11-23T04:32:48.569Z,23.50
2018-11-23T04:35:19.180Z,22.43
2018-11-23T04:37:49.249Z,23.67
2018-11-23T04:40:19.555Z,23.90
2018-11-23T04:42:49.212Z,23.57
2018-11-23T04:45:18.872Z,23.67
2018-11-23T04:47:48.528Z,23.77
2018-11-23T04:50:18.200Z,23.60
2018-11-23T04:52:47.875Z,22.57
2018-11-23T04:55:17.530Z,23.23
2018-11-23T04:57:49.769Z,24.07
2018-11-23T05:00:17.747Z,24.53
2018-11-23T05:02:47.994Z,25.33
2018-11-23T05:05:17.652Z,23.93
2018-11-23T05:07:48.115Z,24.60
2018-11-23T05:10:18.275Z,25.23
2018-11-23T05:12:47.990Z,25.07
2018-11-23T05:15:18.399Z,25.27
2018-11-23T05:17:48.244Z,23.67
2018-11-23T05:20:17.973Z,25.07
2018-11-23T05:22:47.617Z,24.80
2018-11-23T05:25:18.239Z,26.27
2018-11-23T05:27:47.925Z,25.40
2018-11-23T05:30:20.008Z,25.87
2018-11-23T05:32:49.668Z,27.97
2018-11-23T05:35:19.464Z,29.17
2018-11-23T05:37:49.135Z,27.60
2018-11-23T05:40:20.063Z,28.20
2018-11-23T05:42:49.719Z,27.37
2018-11-23T05:45:20.788Z,26.93
2018-11-23T05:47:50.592Z,26.43
2018-11-23T05:50:21.853Z,26.30
2018-11-23T05:52:51.667Z,25.27
2018-11-23T05:55:21.345Z,25.63
2018-11-23T05:57:51.459Z,25.53
2018-11-23T06:00:22.695Z,25.40
2018-11-23T06:02:52.452Z,24.80
2018-11-23T06:05:22.095Z,25.63
2018-11-23T06:07:51.771Z,25.87
2018-11-23T06:10:21.987Z,26.00
2018-11-23T06:12:51.756Z,24.03
2018-11-23T06:15:22.511Z,24.67
2018-11-23T06:17:52.363Z,23.87
2018-11-23T06:20:23.462Z,22.40
2018-11-23T06:22:53.920Z,24.97
2018-11-23T06:25:33.243Z,23.40
2018-11-23T06:28:02.927Z,23.47
2018-11-23T06:30:32.595Z,23.63
2018-11-23T06:33:14.053Z,24.03
2018-11-23T06:35:43.708Z,25.23
2018-11-23T06:38:13.376Z,24.07
2018-11-23T06:40:43.040Z,25.17
2018-11-23T06:43:12.703Z,26.87
2018-11-23T06:45:43.696Z,27.37
2018-11-23T06:48:13.416Z,25.03
2018-11-23T06:50:43.100Z,26.10
2018-11-23T06:53:12.778Z,26.00
2018-11-23T06:55:42.484Z,25.40
2018-11-23T06:58:12.160Z,24.67
2018-11-23T07:00:41.819Z,24.23
2018-11-23T07:03:11.503Z,23.73
2018-11-23T07:05:41.180Z,25.63
2018-11-23T07:08:11.490Z,23.73
2018-11-23T07:10:41.164Z,25.57
2018-11-23T07:13:10.945Z,24.10
2018-11-23T07:15:40.744Z,24.50
2018-11-23T07:18:10.467Z,25.63
2018-11-23T07:20:40.163Z,23.67
2018-11-23T07:23:09.839Z,23.00
2018-11-23T07:25:39.512Z,24.97
2018-11-23T07:28:15.399Z,24.30
2018-11-23T07:30:38.856Z,24.77
2018-11-23T07:33:08.520Z,24.63
2018-11-23T07:35:38.172Z,25.27
2018-11-23T07:38:07.840Z,25.43
2018-11-23T07:40:49.872Z,23.17
2018-11-23T07:43:19.532Z,22.73
2018-11-23T07:45:49.386Z,22.90
2018-11-23T07:48:19.058Z,22.37
2018-11-23T07:50:48.731Z,23.27
2018-11-23T07:53:18.390Z,24.47
2018-11-23T07:55:48.067Z,24.13
2018-11-23T07:58:17.728Z,25.77
2018-11-23T08:00:47.385Z,23.27
2018-11-23T08:03:17.056Z,24.87
2018-11-23T08:05:46.833Z,24.00
2018-11-23T08:08:16.531Z,24.77
2018-11-23T08:10:45.408Z,26.20
2018-11-23T08:13:15.074Z,25.53
2018-11-23T08:15:44.759Z,25.63
2018-11-23T08:18:14.451Z,25.20
2018-11-23T08:20:44.135Z,25.80
2018-11-23T08:23:13.803Z,24.87
2018-11-23T08:25:43.471Z,24.50
2018-11-23T08:28:13.184Z,23.43
2018-11-23T08:30:42.855Z,24.40
2018-11-23T08:33:12.510Z,24.37
2018-11-23T08:35:42.232Z,28.30
2018-11-23T08:38:11.893Z,28.47
2018-11-23T08:40:41.583Z,32.27
2018-11-23T08:43:11.237Z,28.07
2018-11-23T08:45:40.907Z,27.83
2018-11-23T08:48:10.561Z,28.40
2018-11-23T08:50:40.223Z,27.03
2018-11-23T08:53:09.874Z,29.00
2018-11-23T08:55:39.528Z,30.90
2018-11-23T08:58:09.204Z,31.53
2018-11-23T09:00:38.907Z,32.80
2018-11-23T09:03:08.607Z,32.30
2018-11-23T09:05:38.284Z,30.67
2018-11-23T09:08:07.945Z,31.50
2018-11-23T09:10:37.625Z,31.23
2018-11-23T09:13:07.272Z,29.57
2018-11-23T09:15:36.941Z,30.10
2018-11-23T09:18:06.595Z,29.33
2018-11-23T09:20:36.480Z,28.53
2018-11-23T09:23:06.139Z,28.83
2018-11-23T09:25:36.248Z,27.17
2018-11-23T09:28:05.910Z,28.20
2018-11-23T09:30:35.576Z,28.93
2018-11-23T09:33:05.232Z,28.83
2018-11-23T09:35:34.956Z,28.57
2018-11-23T09:38:04.621Z,28.50
2018-11-23T09:40:34.379Z,27.90
2018-11-23T09:43:04.011Z,28.97
2018-11-23T09:45:34.453Z,29.07
2018-11-23T09:48:05.013Z,28.60
2018-11-23T09:50:34.789Z,27.83
2018-11-23T09:53:05.138Z,27.80
2018-11-23T09:55:36.202Z,27.07
2018-11-23T09:58:05.925Z,28.33
2018-11-23T10:00:36.848Z,28.53
2018-11-23T10:03:06.996Z,27.57
2018-11-23T10:05:37.076Z,27.67
2018-11-23T10:08:07.529Z,27.73
2018-11-23T10:10:37.196Z,27.27
2018-11-23T10:13:06.868Z,28.57
2018-11-23T10:15:37.179Z,27.90
2018-11-23T10:18:06.833Z,29.03
2018-11-23T10:20:36.559Z,27.73
2018-11-23T10:23:06.264Z,28.47
2018-11-23T10:25:37.071Z,29.37
2018-11-23T10:28:06.726Z,28.57
2018-11-23T10:30:36.951Z,30.57
2018-11-23T10:33:07.378Z,28.00
2018-11-23T10:35:37.207Z,28.50
2018-11-23T10:38:07.304Z,28.73
2018-11-23T10:40:38.671Z,28.87
2018-11-23T10:43:08.698Z,29.67
2018-11-23T10:45:38.908Z,28.27
2018-11-23T10:48:09.246Z,28.93
2018-11-23T10:50:40.453Z,29.27
2018-11-23T10:53:10.140Z,28.83
2018-11-23T10:55:39.793Z,29.03
2018-11-23T10:58:09.460Z,28.50
2018-11-23T11:00:44.491Z,29.57
2018-11-23T11:03:33.412Z,28.97
2018-11-23T11:06:11.041Z,30.60
2018-11-23T11:08:41.047Z,30.20
2018-11-23T11:11:13.681Z,29.73
2018-11-23T11:13:40.692Z,28.87
2018-11-23T11:19:03.315Z,28.67
2018-11-23T11:21:32.993Z,29.43
2018-11-23T11:24:02.900Z,29.93
2018-11-23T11:26:32.570Z,28.17
2018-11-23T11:29:02.228Z,27.70
2018-11-23T11:31:31.899Z,29.57
2018-11-23T11:34:01.548Z,29.47
2018-11-23T11:36:31.216Z,28.10
2018-11-23T11:39:00.880Z,27.23
2018-11-23T11:41:30.547Z,29.07
2018-11-23T11:44:00.215Z,27.73
2018-11-23T11:46:29.874Z,28.83
2018-11-23T11:48:59.604Z,27.97
2018-11-23T11:51:29.272Z,28.70
2018-11-23T11:53:58.923Z,27.97
2018-11-23T11:56:28.591Z,29.57
2018-11-23T11:58:58.239Z,27.80
2018-11-23T12:01:28.041Z,28.83
2018-11-23T12:03:57.837Z,28.60
2018-11-23T12:06:27.492Z,28.43
2018-11-23T12:08:57.208Z,28.40
2018-11-23T12:11:26.875Z,28.50
2018-11-23T12:13:56.539Z,27.97
2018-11-23T12:16:26.321Z,29.03
2018-11-23T12:18:55.977Z,28.70
2018-11-23T12:21:25.635Z,27.70
2018-11-23T12:23:55.492Z,28.37
2018-11-23T12:26:25.153Z,28.83
2018-11-23T12:28:54.824Z,28.97
2018-11-23T12:31:24.591Z,28.40
2018-11-23T12:33:54.260Z,28.77
2018-11-23T12:36:23.943Z,28.70
2018-11-23T12:38:53.616Z,27.77
2018-11-23T12:41:23.284Z,28.83
2018-11-23T12:43:52.951Z,29.67
2018-11-23T12:46:22.627Z,29.73
2018-11-23T12:48:52.306Z,27.33
2018-11-23T12:51:21.967Z,28.93
2018-11-23T12:53:51.683Z,29.40
2018-11-23T12:56:21.520Z,29.40
2018-11-23T12:58:51.220Z,30.07
2018-11-23T13:01:20.929Z,30.90
2018-11-23T13:03:50.599Z,28.67
2018-11-23T13:06:20.247Z,29.83
2018-11-23T13:08:49.917Z,29.43
2018-11-23T13:11:19.589Z,28.90
2018-11-23T13:13:49.316Z,28.50
2018-11-23T13:16:18.968Z,29.40
2018-11-23T13:18:48.663Z,28.57
2018-11-23T13:21:18.315Z,29.97
2018-11-23T13:23:48.033Z,29.47
2018-11-23T13:26:17.686Z,29.10
2018-11-23T13:28:47.373Z,28.63
2018-11-23T13:31:17.024Z,29.53
2018-11-23T13:33:46.680Z,29.67
2018-11-23T13:36:16.332Z,28.63
2018-11-23T13:38:45.998Z,29.77
2018-11-23T13:41:15.768Z,29.03
2018-11-23T13:43:45.445Z,28.17
2018-11-23T13:46:15.095Z,27.53
2018-11-23T13:48:44.777Z,30.27
2018-11-23T13:51:14.420Z,28.07
2018-11-23T13:53:44.105Z,28.60
2018-11-23T13:56:13.795Z,29.00
2018-11-23T13:58:43.457Z,28.97
2018-11-23T14:01:13.127Z,28.73
2018-11-23T14:03:43.284Z,28.70
2018-11-23T14:06:12.912Z,28.17
2018-11-23T14:08:42.571Z,29.40
2018-11-23T14:11:12.247Z,30.47
2018-11-23T14:13:42.589Z,29.13
2018-11-23T14:16:12.316Z,29.90
2018-11-23T14:18:41.985Z,28.87
2018-11-23T14:21:11.652Z,27.77
2018-11-23T14:23:41.728Z,28.17
2018-11-23T14:26:11.390Z,30.07
2018-11-23T14:28:41.039Z,29.40
2018-11-23T14:31:10.700Z,30.37
2018-11-23T14:33:40.350Z,29.53
2018-11-23T14:36:10.147Z,28.90
2018-11-23T14:38:39.792Z,28.73
2018-11-23T14:41:09.520Z,28.73
2018-11-23T14:43:39.168Z,43.40
2018-11-23T14:46:08.824Z,37.70
2018-11-23T14:48:38.466Z,31.63
2018-11-23T14:51:08.161Z,61.37
2018-11-23T14:53:37.821Z,62.27
2018-11-23T14:56:07.545Z,58.73
2018-11-23T14:58:37.201Z,32.83
2018-11-23T15:01:06.860Z,33.30
2018-11-23T15:03:36.610Z,34.00
2018-11-23T15:06:06.284Z,86.13
2018-11-23T15:08:35.949Z,86.97
2018-11-23T15:11:06.128Z,50.57
2018-11-23T15:13:35.800Z,51.90
2018-11-23T15:16:05.527Z,72.40
2018-11-23T15:18:35.199Z,245.10
2018-11-23T15:21:05.184Z,95.23
2018-11-23T15:23:34.881Z,174.10
2018-11-23T15:26:04.791Z,103.63
2018-11-23T15:28:34.479Z,101.67
2018-11-23T15:31:04.141Z,72.43
2018-11-23T15:33:33.809Z,82.43
2018-11-23T15:36:03.468Z,53.70
2018-11-23T15:38:33.149Z,39.73
2018-11-23T15:41:02.805Z,122.63
2018-11-23T15:43:32.488Z,71.10
2018-11-23T15:46:02.132Z,46.53
2018-11-23T15:48:31.785Z,23.73
2018-11-23T15:51:06.447Z,8.83
2018-11-23T15:53:36.277Z,9.33
2018-11-23T15:56:05.993Z,16.43
2018-11-23T15:58:35.668Z,16.63
2018-11-23T16:01:05.444Z,14.47
2018-11-23T16:03:35.109Z,10.20
2018-11-23T16:06:05.190Z,9.20
2018-11-23T16:08:34.885Z,9.30
2018-11-23T16:11:04.564Z,8.90
2018-11-23T16:13:34.220Z,10.07
2018-11-23T16:16:03.885Z,10.50
2018-11-23T16:18:33.536Z,15.50
2018-11-23T16:21:03.197Z,9.27
2018-11-23T16:23:32.840Z,10.40
2018-11-23T16:26:02.598Z,9.70
2018-11-23T16:28:32.343Z,10.30
2018-11-23T16:31:01.999Z,13.97
2018-11-23T16:33:31.709Z,13.80
2018-11-23T16:36:01.362Z,14.57
2018-11-23T16:38:31.058Z,11.87
2018-11-23T16:41:00.719Z,12.57
2018-11-23T16:43:30.364Z,10.73
2018-11-23T16:46:00.100Z,16.90
2018-11-23T16:48:29.803Z,22.47
2018-11-23T16:50:59.440Z,21.90
2018-11-23T16:53:29.112Z,13.10
2018-11-23T16:55:58.836Z,9.40
2018-11-23T16:58:28.556Z,9.73
2018-11-23T17:00:58.284Z,10.60
2018-11-23T17:03:28.016Z,10.87
2018-11-23T17:05:57.678Z,10.23
2018-11-23T17:08:27.522Z,12.53
2018-11-23T17:10:57.163Z,17.40
2018-11-23T17:13:26.818Z,12.17
2018-11-23T17:15:56.467Z,10.00
2018-11-23T17:18:26.121Z,9.90
2018-11-23T17:20:56.660Z,9.70
2018-11-23T17:23:25.410Z,10.23
2018-11-23T17:25:55.155Z,11.53
2018-11-23T17:28:24.808Z,11.70
2018-11-23T17:30:54.447Z,10.23
2018-11-23T17:33:24.107Z,11.67
2018-11-23T17:35:53.765Z,10.23
2018-11-23T17:38:23.415Z,10.57
2018-11-23T17:40:53.098Z,10.47
2018-11-23T17:43:22.887Z,10.23
2018-11-23T17:45:52.539Z,9.87
2018-11-23T17:48:22.224Z,11.10
2018-11-23T17:50:51.893Z,12.73
2018-11-23T17:53:21.531Z,12.30
2018-11-23T17:55:51.270Z,10.90
2018-11-23T17:58:20.916Z,10.87
2018-11-23T18:00:50.592Z,10.97
2018-11-23T18:03:20.297Z,11.00
2018-11-23T18:05:50.017Z,10.27
2018-11-23T18:08:19.658Z,13.70
2018-11-23T18:10:49.310Z,41.10
2018-11-23T18:13:18.957Z,35.03
2018-11-23T18:15:49.296Z,21.10
2018-11-23T18:18:18.965Z,11.50
2018-11-23T18:20:48.691Z,10.30
2018-11-23T18:23:18.340Z,13.07
2018-11-23T18:25:48.675Z,18.33
2018-11-23T18:28:18.380Z,22.47
2018-11-23T18:30:48.141Z,23.73
2018-11-23T18:33:17.780Z,15.63
2018-11-23T18:35:47.691Z,12.33
2018-11-23T18:38:17.352Z,10.70
2018-11-23T18:40:47.000Z,10.13
2018-11-23T18:43:16.663Z,10.67
2018-11-23T18:45:46.316Z,11.23
2018-11-23T18:48:16.109Z,10.90
2018-11-23T18:50:46.063Z,10.77
2018-11-23T18:53:15.704Z,9.67
2018-11-23T18:55:45.365Z,9.77
2018-11-23T18:58:15.020Z,13.43
2018-11-23T19:00:44.780Z,12.53
2018-11-23T19:03:14.459Z,15.30
2018-11-23T19:05:44.184Z,10.53
2018-11-23T19:08:13.846Z,9.40
2018-11-23T19:10:43.501Z,11.90
2018-11-23T19:13:13.140Z,10.30
2018-11-23T19:15:42.799Z,10.37
2018-11-23T19:18:12.444Z,11.80
2018-11-23T19:20:42.141Z,34.50
2018-11-23T19:23:11.846Z,16.70
2018-11-23T19:25:41.773Z,15.37
2018-11-23T19:28:11.424Z,16.30
2018-11-23T19:30:41.084Z,16.87
2018-11-23T19:33:10.741Z,14.97
2018-11-23T19:35:40.388Z,13.10
2018-11-23T19:38:10.044Z,12.60
2018-11-23T19:40:39.721Z,13.20
2018-11-23T19:43:09.416Z,12.63
2018-11-23T19:45:39.144Z,12.73
2018-11-23T19:48:08.815Z,11.17
2018-11-23T19:50:38.561Z,11.10
2018-11-23T19:53:08.216Z,11.50
2018-11-23T19:55:37.869Z,11.83
2018-11-23T19:58:07.544Z,11.70
2018-11-23T20:00:37.168Z,10.90
2018-11-23T20:03:06.834Z,11.73
2018-11-23T20:05:36.921Z,11.30
2018-11-23T20:08:06.620Z,12.73
2018-11-23T20:10:36.273Z,12.63
2018-11-23T20:13:06.139Z,12.50
2018-11-23T20:15:35.817Z,12.40
2018-11-23T20:18:06.183Z,25.50
2018-11-23T20:20:35.834Z,21.00
2018-11-23T20:23:05.588Z,13.83
2018-11-23T20:25:35.241Z,14.80
2018-11-23T20:28:04.906Z,17.97
2018-11-23T20:30:34.568Z,16.37
2018-11-23T20:33:04.235Z,14.60
2018-11-23T20:35:33.879Z,14.57
2018-11-23T20:38:03.544Z,15.03
2018-11-23T20:40:33.205Z,15.67
2018-11-23T20:43:02.887Z,15.53
2018-11-23T20:45:32.546Z,14.87
2018-11-23T20:48:02.200Z,15.53
2018-11-23T20:50:31.888Z,14.37
2018-11-23T20:53:01.596Z,15.23
2018-11-23T20:55:31.288Z,15.40
2018-11-23T20:58:00.967Z,15.07
2018-11-23T21:00:30.621Z,14.90
2018-11-23T21:03:00.292Z,14.57
2018-11-23T21:05:30.178Z,14.97
2018-11-23T21:07:59.841Z,14.07
2018-11-23T21:10:29.517Z,14.77
2018-11-23T21:12:59.319Z,15.13
2018-11-23T21:15:30.043Z,14.97
2018-11-23T21:18:01.962Z,15.33
2018-11-23T21:20:31.628Z,15.40
2018-11-23T21:23:01.397Z,15.77
2018-11-23T21:25:31.040Z,15.60
2018-11-23T21:28:00.816Z,14.60
2018-11-23T21:30:30.471Z,15.47
2018-11-23T21:33:00.133Z,16.20
2018-11-23T21:35:30.322Z,16.47
2018-11-23T21:37:59.992Z,16.77
2018-11-23T21:40:29.638Z,15.43
2018-11-23T21:42:59.336Z,15.27
2018-11-23T21:45:29.080Z,15.93
2018-11-23T21:47:58.736Z,16.07
2018-11-23T21:50:28.387Z,15.70
2018-11-23T21:52:58.050Z,16.60
2018-11-23T21:55:27.692Z,16.30
2018-11-23T21:57:57.368Z,15.40
2018-11-23T22:00:27.020Z,16.00
2018-11-23T22:02:56.728Z,15.43
2018-11-23T22:05:26.452Z,16.47
2018-11-23T22:07:56.138Z,17.17
2018-11-23T22:10:25.888Z,17.23
2018-11-23T22:12:55.560Z,17.30
2018-11-23T22:15:25.528Z,17.43
2018-11-23T22:17:56.309Z,17.43
2018-11-23T22:20:26.260Z,18.93
2018-11-23T22:23:02.112Z,18.27
2018-11-23T22:25:31.814Z,18.63
2018-11-23T22:28:01.456Z,19.40
2018-11-23T22:30:31.328Z,18.07
2018-11-23T22:33:01.001Z,19.03
2018-11-23T22:35:30.791Z,19.07
2018-11-23T22:38:00.483Z,19.17
2018-11-23T22:40:30.161Z,18.83
2018-11-23T22:42:59.916Z,19.13
2018-11-23T22:45:29.618Z,19.83
2018-11-23T22:47:59.243Z,18.20
2018-11-23T22:50:28.923Z,19.20
2018-11-23T22:52:58.567Z,19.20
2018-11-23T22:55:28.344Z,19.27
2018-11-23T22:57:58.014Z,19.43
2018-11-23T23:00:33.025Z,20.50
2018-11-23T23:03:02.682Z,21.40
2018-11-23T23:05:32.349Z,20.37
2018-11-23T23:08:02.013Z,20.50
2018-11-23T23:10:31.680Z,21.60
2018-11-23T23:13:01.345Z,21.77
2018-11-23T23:15:31.007Z,20.73
2018-11-23T23:18:00.664Z,20.37
2018-11-23T23:20:30.328Z,20.73
2018-11-23T23:22:59.996Z,21.43
2018-11-23T23:25:29.725Z,21.63
2018-11-23T23:27:59.424Z,20.67
2018-11-23T23:30:29.086Z,21.47
2018-11-23T23:32:58.770Z,20.73
2018-11-23T23:35:28.410Z,22.13
2018-11-23T23:37:58.085Z,21.57
2018-11-23T23:40:27.768Z,21.70
2018-11-23T23:42:57.416Z,20.63
2018-11-23T23:45:27.081Z,20.30
2018-11-23T23:47:57.040Z,20.53
2018-11-23T23:50:26.692Z,20.43
2018-11-23T23:52:56.343Z,21.57
2018-11-23T23:55:26.001Z,20.10
2018-11-23T23:57:55.725Z,20.80
